Juneau International Airport Juneau US
ICAO: PAJN
IATA: JNU
Category: Medium
Scheduled Services:

Elevation: 21 ft
TransAlt. 18000 ft.

Airport Communications:
ATIS:135.2
TWEB:114
ANCHORAGE CNTR:133.9
CTAF:118.7
RDO:122.2
GND:121.9
RDO:122.15
NAT GD OPS:124.65
TWR:118.7
UNICOM:122.95

PAJN Zoom In..

If you have problems with the map follow the link
https://www.worldairports.se/pages/airport.php?
ICAO=PAJN

Runways:

(A) RW 08 length 8457 ft width 150 ft
---- / hdg 85

(B) RW 26 length 8457 ft width 150 ft
---- / hdg 265

Location; PAJN
Day. 12 / Time. 09.53 Zulu
* Altimeter: 29.42
* Temperature: 01° c. 33.8°f.
* Wind from: 000° Speed 00 kn.
Dewpoint: 01° c.
Visibility: 7 Statute Miles.
Clouds: Few 000 ft.
Clouds: Scattered 200 ft.
Clouds: Broken 9000 ft.
Clouds: Broken 14000 ft.
Clouds: Overcast 23000 ft.
Clouds: Few 000 ft.
Conditions: Fog Patches.Conditions: Fog Patches.Conditions: Fog Patches.

PAJN 120953Z 00000KT 7SM BCFG FEW000 SCT002 BKN090 BKN140 OVC230 01/01 A2942 RMK AO2 SLP961 VIS SE 1 1/2 FEW000 BCFG BCFG NE-SE T00110006


Wind - Calm.

 
 
jpsmedia worldairports.se 2019   terms of use